OIBL METAR and TAF | Updated Today

OIBL METAR

Bandar Lengeh Airport

Observation time: 44 min. ago

OIBL 292100Z 00000KT 4000 HZ NSC 29/24 Q1005

Need help? Read our tutorial on how to read METARs or read the parsed version below.

Bandar Lengeh Airport (OIBL) METAR

  • Weather conditions on Thu, 29 Sep 2022 21:00:00 +0000 (44 min. ago):
  • Present conditions: Haze
  • Clouds: No significant clouds are observed
  • Visibility: 4000 meters
  • Wind: Calm
  • Temperature: 29 celsius
  • Dew point: 24 celsius
  • Pressure: 1005 millibars
  • Remarks: None


Useful to know...